createdAt,value
2022-11-26T00:01:40.588Z,10.67
2022-11-26T00:04:07.293Z,2.17
2022-11-26T00:06:36.973Z,2.30
2022-11-26T00:09:13.330Z,5.10
2022-11-26T00:11:40.375Z,3.33
2022-11-26T00:14:14.156Z,8.10
2022-11-26T00:16:41.139Z,2.80
2022-11-26T00:19:07.823Z,2.17
2022-11-26T00:21:37.392Z,6.57
2022-11-26T00:24:04.647Z,6.10
2022-11-26T00:26:32.343Z,4.13
2022-11-26T00:29:00.733Z,6.93
2022-11-26T00:31:27.824Z,4.20
2022-11-26T00:33:54.708Z,7.60
2022-11-26T00:36:27.934Z,4.63
2022-11-26T00:39:02.416Z,2.30
2022-11-26T00:41:38.720Z,2.83
2022-11-26T00:44:18.863Z,4.97
2022-11-26T00:46:45.697Z,4.90
2022-11-26T00:49:12.288Z,5.97
2022-11-26T00:51:39.874Z,4.93
2022-11-26T00:54:09.920Z,11.77
2022-11-26T00:56:40.075Z,8.03
2022-11-26T00:59:06.744Z,7.13
2022-11-26T01:01:33.484Z,7.40
2022-11-26T01:04:00.261Z,7.10
2022-11-26T01:06:34.170Z,3.33
2022-11-26T01:09:01.989Z,4.07
2022-11-26T01:11:28.615Z,4.73
2022-11-26T01:13:55.514Z,6.27
2022-11-26T01:16:25.116Z,8.43
2022-11-26T01:18:54.919Z,4.67
2022-11-26T01:21:25.802Z,5.73
2022-11-26T01:23:52.899Z,3.00
2022-11-26T01:26:23.673Z,4.80
2022-11-26T01:28:50.823Z,4.83
2022-11-26T01:31:20.697Z,5.07
2022-11-26T01:33:47.990Z,3.40
2022-11-26T01:36:34.598Z,2.03
2022-11-26T01:39:22.802Z,2.47
2022-11-26T01:41:57.089Z,4.63
2022-11-26T01:44:30.202Z,4.43
2022-11-26T01:46:57.209Z,3.20
2022-11-26T01:49:23.843Z,2.93
2022-11-26T01:52:17.384Z,2.10
2022-11-26T01:54:45.814Z,3.50
2022-11-26T01:57:33.993Z,3.77
2022-11-26T02:00:02.886Z,1.93
2022-11-26T02:02:30.217Z,1.33
2022-11-26T02:05:07.633Z,2.97
2022-11-26T02:07:35.596Z,3.80
2022-11-26T02:10:03.017Z,1.97
2022-11-26T02:12:29.762Z,1.53
2022-11-26T02:14:56.712Z,2.47
2022-11-26T02:17:35.422Z,3.30
2022-11-26T02:20:24.423Z,3.03
2022-11-26T02:23:21.847Z,2.93
2022-11-26T02:26:36.263Z,1.80
2022-11-26T02:29:31.218Z,2.70
2022-11-26T02:32:08.751Z,2.43
2022-11-26T02:34:48.050Z,1.83
2022-11-26T02:37:23.050Z,2.97
2022-11-26T02:39:51.147Z,1.33
2022-11-26T02:42:27.576Z,2.27
2022-11-26T02:44:57.614Z,2.47
2022-11-26T02:47:27.016Z,2.23
2022-11-26T02:49:56.005Z,3.73
2022-11-26T02:52:25.175Z,2.20
2022-11-26T02:54:53.054Z,1.60
2022-11-26T02:57:24.373Z,2.37
2022-11-26T02:59:51.187Z,2.20
2022-11-26T03:02:25.708Z,1.70
2022-11-26T03:04:56.816Z,2.27
2022-11-26T03:07:23.829Z,2.37
2022-11-26T03:09:54.466Z,5.57
2022-11-26T03:12:21.842Z,3.33
2022-11-26T03:14:48.483Z,1.83
2022-11-26T03:17:15.882Z,2.57
2022-11-26T03:19:42.529Z,3.07
2022-11-26T03:22:09.343Z,2.70
2022-11-26T03:24:36.122Z,2.87
2022-11-26T03:27:02.930Z,2.13
2022-11-26T03:29:29.964Z,3.23
2022-11-26T03:31:56.727Z,1.93
2022-11-26T03:34:23.439Z,1.73
2022-11-26T03:36:50.288Z,5.63
2022-11-26T03:39:17.115Z,1.60
2022-11-26T03:41:44.367Z,3.37
2022-11-26T03:44:11.958Z,2.10
2022-11-26T03:46:39.006Z,3.03
2022-11-26T03:49:06.058Z,5.87
2022-11-26T03:51:32.894Z,1.70
2022-11-26T03:53:59.628Z,1.77
2022-11-26T03:56:26.261Z,1.70
2022-11-26T03:58:52.907Z,2.47
2022-11-26T04:01:19.750Z,3.00
2022-11-26T04:03:46.476Z,3.93
2022-11-26T04:06:15.204Z,2.83
2022-11-26T04:08:41.809Z,5.77
2022-11-26T04:11:08.456Z,3.40
2022-11-26T04:13:35.348Z,2.47
2022-11-26T04:16:02.028Z,5.30
2022-11-26T04:18:28.753Z,2.50
2022-11-26T04:20:55.499Z,3.33
2022-11-26T04:23:22.177Z,2.27
2022-11-26T04:25:48.811Z,4.60
2022-11-26T04:28:15.379Z,3.10
2022-11-26T04:30:43.261Z,2.43
2022-11-26T04:33:10.148Z,5.77
2022-11-26T04:35:37.747Z,3.07
2022-11-26T04:38:04.437Z,3.93
2022-11-26T04:40:31.037Z,5.07
2022-11-26T04:42:57.676Z,3.70
2022-11-26T04:45:24.428Z,5.20
2022-11-26T04:47:51.161Z,3.57
2022-11-26T04:50:17.935Z,4.23
2022-11-26T04:52:44.573Z,5.47
2022-11-26T04:55:11.174Z,4.20
2022-11-26T04:57:37.770Z,2.50
2022-11-26T05:00:06.422Z,5.83
2022-11-26T05:02:33.518Z,6.90
2022-11-26T05:05:00.231Z,2.87
2022-11-26T05:07:26.931Z,5.13
2022-11-26T05:09:53.517Z,7.43
2022-11-26T05:12:20.171Z,4.33
2022-11-26T05:14:46.786Z,4.27
2022-11-26T05:17:13.516Z,5.40
2022-11-26T05:19:40.161Z,3.70
2022-11-26T05:22:06.809Z,6.43
2022-11-26T05:24:33.439Z,5.53
2022-11-26T05:27:00.101Z,3.90
2022-11-26T05:29:26.881Z,5.37
2022-11-26T05:31:53.568Z,5.90
2022-11-26T05:34:21.080Z,6.00
2022-11-26T05:36:47.674Z,7.60
2022-11-26T05:39:14.257Z,12.57
2022-11-26T05:41:40.900Z,6.30
2022-11-26T05:44:07.477Z,7.23
2022-11-26T05:46:35.786Z,10.07
2022-11-26T05:49:02.424Z,4.73
2022-11-26T05:51:29.070Z,6.37
2022-11-26T05:53:55.641Z,5.47
2022-11-26T05:56:22.333Z,5.23
2022-11-26T05:58:48.971Z,10.60
2022-11-26T06:01:15.777Z,4.20
2022-11-26T06:03:42.814Z,5.60
2022-11-26T06:06:09.826Z,7.83
2022-11-26T06:08:36.954Z,6.13
2022-11-26T06:11:03.587Z,7.57
2022-11-26T06:13:30.211Z,6.43
2022-11-26T06:15:56.857Z,6.53
2022-11-26T06:18:23.634Z,6.40
2022-11-26T06:20:50.257Z,8.00
2022-11-26T06:23:16.885Z,9.20
2022-11-26T06:25:43.544Z,7.17
2022-11-26T06:28:10.586Z,7.07
2022-11-26T06:30:37.201Z,3.93
2022-11-26T06:33:03.840Z,6.63
2022-11-26T06:35:30.519Z,8.87
2022-11-26T06:37:57.141Z,6.47
2022-11-26T06:40:23.793Z,4.20
2022-11-26T06:42:51.929Z,7.07
2022-11-26T06:45:19.423Z,5.30
2022-11-26T06:47:47.778Z,4.00
2022-11-26T06:50:15.787Z,3.40
2022-11-26T06:52:42.626Z,5.97
2022-11-26T06:55:09.561Z,6.57
2022-11-26T06:57:36.483Z,6.00
2022-11-26T07:00:05.146Z,4.43
2022-11-26T07:02:32.081Z,5.67
2022-11-26T07:04:58.806Z,7.33
2022-11-26T07:07:25.500Z,4.87
2022-11-26T07:09:52.156Z,7.73
2022-11-26T07:12:18.854Z,7.13
2022-11-26T07:14:45.478Z,6.37
2022-11-26T07:17:12.136Z,5.80
2022-11-26T07:19:38.705Z,7.53
2022-11-26T07:22:05.292Z,5.40
2022-11-26T07:24:31.916Z,4.87
2022-11-26T07:26:58.605Z,8.57
2022-11-26T07:29:25.295Z,5.27
2022-11-26T07:31:51.972Z,6.73
2022-11-26T07:34:18.703Z,6.00
2022-11-26T07:36:45.375Z,5.63
2022-11-26T07:39:12.237Z,6.57
2022-11-26T07:41:38.940Z,5.80
2022-11-26T07:44:05.549Z,8.87
2022-11-26T07:46:32.255Z,14.37
2022-11-26T07:48:58.928Z,5.97
2022-11-26T07:51:28.856Z,7.70
2022-11-26T07:53:59.590Z,14.40
2022-11-26T07:56:27.205Z,5.97
2022-11-26T07:58:54.065Z,5.97
2022-11-26T08:01:23.779Z,7.07
2022-11-26T08:03:51.508Z,7.97
2022-11-26T08:06:21.338Z,7.63
2022-11-26T08:08:48.529Z,10.57
2022-11-26T08:11:17.741Z,5.53
2022-11-26T08:13:44.727Z,5.80
2022-11-26T08:16:12.049Z,6.17
2022-11-26T08:18:39.027Z,6.47
2022-11-26T08:21:06.288Z,5.07
2022-11-26T08:23:34.291Z,6.77
2022-11-26T08:26:24.239Z,7.53
2022-11-26T08:28:54.583Z,4.23
2022-11-26T08:31:21.531Z,5.50
2022-11-26T08:33:48.281Z,6.27
2022-11-26T08:36:14.916Z,11.40
2022-11-26T08:38:41.748Z,5.73
2022-11-26T08:41:11.112Z,5.73
2022-11-26T08:44:05.810Z,6.70
2022-11-26T08:46:26.090Z,7.07
2022-11-26T08:48:55.747Z,4.23
2022-11-26T08:51:23.343Z,7.97
2022-11-26T08:53:50.056Z,13.57
2022-11-26T08:56:16.700Z,9.10
2022-11-26T08:58:48.926Z,7.57
2022-11-26T09:01:20.134Z,6.70
2022-11-26T09:03:51.467Z,13.97
2022-11-26T09:06:19.276Z,10.43
2022-11-26T09:09:04.636Z,6.63
2022-11-26T09:11:32.449Z,9.63
2022-11-26T09:13:59.512Z,7.77
2022-11-26T09:16:26.371Z,7.97
2022-11-26T09:18:53.522Z,6.57
2022-11-26T09:21:22.552Z,7.20
2022-11-26T09:23:49.189Z,9.63
2022-11-26T09:26:15.837Z,6.33
2022-11-26T09:28:42.452Z,10.73
2022-11-26T09:31:09.177Z,7.33
2022-11-26T09:33:35.827Z,5.13
2022-11-26T09:36:08.375Z,7.73
2022-11-26T09:38:36.352Z,5.77
2022-11-26T09:41:15.103Z,9.17
2022-11-26T09:44:12.376Z,7.83
2022-11-26T09:47:12.398Z,5.20
2022-11-26T09:49:58.459Z,8.97
2022-11-26T09:52:30.487Z,5.27
2022-11-26T09:55:10.852Z,8.57
2022-11-26T09:57:44.348Z,9.33
2022-11-26T10:00:20.745Z,7.73
2022-11-26T10:02:47.432Z,7.60
2022-11-26T10:05:18.485Z,10.00
2022-11-26T10:08:16.326Z,8.90
2022-11-26T10:11:05.646Z,7.67
2022-11-26T10:13:45.752Z,8.73
2022-11-26T10:16:29.686Z,7.57
2022-11-26T10:19:08.783Z,7.63
2022-11-26T10:21:58.656Z,10.20
2022-11-26T10:24:40.947Z,8.77
2022-11-26T10:27:18.287Z,6.37
2022-11-26T10:29:54.961Z,6.67
2022-11-26T10:32:35.222Z,7.47
2022-11-26T10:35:02.398Z,7.20
2022-11-26T10:37:29.862Z,7.93
2022-11-26T10:40:18.442Z,8.83
2022-11-26T10:43:05.751Z,8.63
2022-11-26T10:45:43.811Z,7.70
2022-11-26T10:48:35.127Z,6.90
2022-11-26T10:51:06.441Z,4.67
2022-11-26T10:53:54.639Z,4.27
2022-11-26T10:56:29.179Z,8.37
2022-11-26T10:59:02.612Z,4.93
2022-11-26T11:01:39.856Z,7.27
2022-11-26T11:04:24.408Z,12.87
2022-11-26T11:06:51.314Z,5.27
2022-11-26T11:09:38.645Z,7.10
2022-11-26T11:12:20.964Z,9.20
2022-11-26T11:14:49.731Z,6.40
2022-11-26T11:17:36.671Z,10.40
2022-11-26T11:20:22.128Z,6.17
2022-11-26T11:22:58.130Z,5.93
2022-11-26T11:25:28.497Z,9.47
2022-11-26T11:28:02.285Z,7.87
2022-11-26T11:30:32.884Z,5.40
2022-11-26T11:33:11.986Z,7.33
2022-11-26T11:35:39.279Z,6.13
2022-11-26T11:38:21.924Z,7.37
2022-11-26T11:40:49.328Z,8.70
2022-11-26T11:43:18.080Z,6.53
2022-11-26T11:45:55.750Z,6.97
2022-11-26T11:48:25.303Z,8.33
2022-11-26T11:51:12.020Z,5.17
2022-11-26T11:53:51.562Z,5.87
2022-11-26T11:56:25.262Z,7.67
2022-11-26T11:59:05.646Z,6.80
2022-11-26T12:02:32.202Z,4.57
2022-11-26T12:05:32.972Z,6.27
2022-11-26T12:08:36.178Z,7.17
2022-11-26T12:11:18.149Z,5.73
2022-11-26T12:13:53.847Z,7.90
2022-11-26T12:16:24.747Z,9.40
2022-11-26T12:19:00.918Z,11.03
2022-11-26T12:22:04.407Z,5.83
2022-11-26T12:24:43.480Z,7.17
2022-11-26T12:27:38.266Z,9.13
2022-11-26T12:30:15.221Z,9.00
2022-11-26T12:33:13.432Z,13.93
2022-11-26T12:35:45.583Z,10.20
2022-11-26T12:38:19.557Z,16.30
2022-11-26T12:40:51.427Z,29.17
2022-11-26T12:43:25.854Z,22.10
2022-11-26T12:45:58.687Z,14.33
2022-11-26T12:48:33.417Z,4.17
2022-11-26T12:51:26.580Z,21.07
2022-11-26T12:54:17.216Z,13.37
2022-11-26T12:57:23.144Z,25.13
2022-11-26T12:59:58.528Z,17.03
2022-11-26T13:02:31.003Z,11.37
2022-11-26T13:05:02.007Z,8.63
2022-11-26T13:07:53.547Z,7.63
2022-11-26T13:10:44.111Z,10.47
2022-11-26T13:13:25.289Z,10.53
2022-11-26T13:16:04.113Z,6.53
2022-11-26T13:18:47.582Z,7.17
2022-11-26T13:21:37.383Z,6.03
2022-11-26T13:24:13.533Z,4.87
2022-11-26T13:27:01.441Z,5.67
2022-11-26T13:29:44.591Z,7.10
2022-11-26T13:32:44.263Z,5.33
2022-11-26T13:35:16.590Z,5.43
2022-11-26T13:38:09.088Z,7.97
2022-11-26T13:41:03.527Z,4.50
2022-11-26T13:43:54.826Z,5.23
2022-11-26T13:46:25.080Z,4.47
2022-11-26T13:48:54.466Z,13.20
2022-11-26T13:51:25.293Z,19.10
2022-11-26T13:54:01.463Z,16.07
2022-11-26T13:56:32.432Z,12.57
2022-11-26T13:59:08.735Z,11.47
2022-11-26T14:01:40.662Z,16.27
2022-11-26T14:04:13.700Z,9.00
2022-11-26T14:07:06.130Z,14.07
2022-11-26T14:09:52.556Z,11.10
2022-11-26T14:12:27.849Z,9.67
2022-11-26T14:14:54.522Z,6.63
2022-11-26T14:17:23.688Z,6.57
2022-11-26T14:19:52.093Z,6.97
2022-11-26T14:22:21.857Z,7.90
2022-11-26T14:24:51.318Z,7.83
2022-11-26T14:27:21.795Z,6.50
2022-11-26T14:30:00.105Z,8.77
2022-11-26T14:32:32.919Z,9.30
2022-11-26T14:35:00.027Z,10.93
2022-11-26T14:37:30.209Z,6.67
2022-11-26T14:40:19.202Z,9.77
2022-11-26T14:42:45.976Z,7.30
2022-11-26T14:45:18.589Z,7.17
2022-11-26T14:47:49.158Z,6.63
2022-11-26T14:50:19.407Z,8.50
2022-11-26T14:52:46.833Z,6.47
2022-11-26T14:55:24.100Z,7.30
2022-11-26T14:57:56.273Z,9.23
2022-11-26T15:00:27.438Z,8.90
2022-11-26T15:02:54.763Z,12.00
2022-11-26T15:05:24.072Z,6.70
2022-11-26T15:08:02.260Z,10.30
2022-11-26T15:10:40.744Z,10.40
2022-11-26T15:13:14.298Z,13.20
2022-11-26T15:15:52.415Z,9.30
2022-11-26T15:18:21.971Z,23.83
2022-11-26T15:20:52.964Z,10.03
2022-11-26T15:23:27.995Z,16.20
2022-11-26T15:25:55.428Z,12.40
2022-11-26T15:28:23.177Z,12.63
2022-11-26T15:30:59.038Z,11.57
2022-11-26T15:33:27.574Z,10.33
2022-11-26T15:35:57.785Z,8.47
2022-11-26T15:38:26.959Z,5.97
2022-11-26T15:41:21.551Z,8.77
2022-11-26T15:43:52.922Z,11.53
2022-11-26T15:46:25.693Z,8.00
2022-11-26T15:49:03.838Z,11.70
2022-11-26T15:51:37.055Z,18.07
2022-11-26T15:54:23.112Z,9.53
2022-11-26T15:57:08.134Z,13.03
2022-11-26T15:59:52.124Z,9.83
2022-11-26T16:02:22.697Z,5.53
2022-11-26T16:04:54.785Z,5.47
2022-11-26T16:07:23.812Z,10.30
2022-11-26T16:10:08.668Z,5.37
2022-11-26T16:12:36.284Z,9.43
2022-11-26T16:15:31.355Z,11.07
2022-11-26T16:17:58.009Z,10.57
2022-11-26T16:20:28.119Z,7.43
2022-11-26T16:22:58.932Z,7.50
2022-11-26T16:25:33.132Z,7.30
2022-11-26T16:28:05.741Z,8.70
2022-11-26T16:30:33.626Z,11.27
2022-11-26T16:33:00.339Z,11.93
2022-11-26T16:35:45.085Z,11.70
2022-11-26T16:38:21.462Z,14.27
2022-11-26T16:40:48.813Z,11.80
2022-11-26T16:43:15.543Z,12.70
2022-11-26T16:45:42.336Z,6.63
2022-11-26T16:48:25.483Z,7.40
2022-11-26T16:50:54.123Z,6.13
2022-11-26T16:53:21.126Z,7.57
2022-11-26T16:55:49.937Z,9.37
2022-11-26T16:58:26.990Z,8.20
2022-11-26T17:00:55.218Z,10.93
2022-11-26T17:03:25.126Z,7.13
2022-11-26T17:05:56.691Z,8.03
2022-11-26T17:08:23.482Z,7.73
2022-11-26T17:10:51.283Z,12.30
2022-11-26T17:13:18.721Z,11.17
2022-11-26T17:15:45.597Z,6.53
2022-11-26T17:18:22.615Z,7.10
2022-11-26T17:20:50.627Z,13.00
2022-11-26T17:23:17.535Z,11.43
2022-11-26T17:25:52.062Z,19.60
2022-11-26T17:28:21.075Z,12.00
2022-11-26T17:30:47.897Z,9.27
2022-11-26T17:33:14.687Z,14.30
2022-11-26T17:35:41.385Z,17.77
2022-11-26T17:38:16.735Z,14.70
2022-11-26T17:40:44.380Z,12.17
2022-11-26T17:43:11.276Z,12.73
2022-11-26T17:45:38.777Z,11.33
2022-11-26T17:48:05.971Z,14.90
2022-11-26T17:50:33.467Z,17.10
2022-11-26T17:53:00.241Z,10.00
2022-11-26T17:55:27.133Z,11.40
2022-11-26T17:57:55.427Z,17.10
2022-11-26T18:00:26.288Z,14.60
2022-11-26T18:02:52.915Z,15.30
2022-11-26T18:05:19.903Z,16.87
2022-11-26T18:07:46.612Z,21.37
2022-11-26T18:10:16.440Z,13.23
2022-11-26T18:12:44.010Z,22.30
2022-11-26T18:15:19.724Z,20.70
2022-11-26T18:17:51.202Z,18.53
2022-11-26T18:20:21.405Z,20.13
2022-11-26T18:22:57.663Z,16.53
2022-11-26T18:25:24.307Z,14.40
2022-11-26T18:27:52.038Z,12.27
2022-11-26T18:30:19.762Z,17.80
2022-11-26T18:32:47.079Z,9.83
2022-11-26T18:35:13.990Z,12.00
2022-11-26T18:37:41.110Z,15.10
2022-11-26T18:40:11.136Z,11.90
2022-11-26T18:42:39.214Z,11.47
2022-11-26T18:45:10.844Z,8.70
2022-11-26T18:47:38.322Z,10.37
2022-11-26T18:50:06.182Z,9.53
2022-11-26T18:52:32.868Z,11.47
2022-11-26T18:55:00.076Z,10.33
2022-11-26T18:57:26.790Z,19.07
2022-11-26T18:59:53.349Z,9.97
2022-11-26T19:02:20.013Z,14.03
2022-11-26T19:04:46.696Z,19.67
2022-11-26T19:07:14.289Z,16.37
2022-11-26T19:09:41.864Z,10.77
2022-11-26T19:12:08.999Z,10.97
2022-11-26T19:14:35.972Z,12.47
2022-11-26T19:17:02.852Z,13.63
2022-11-26T19:19:29.544Z,18.37
2022-11-26T19:22:00.965Z,16.73
2022-11-26T19:24:28.745Z,15.90
2022-11-26T19:26:55.350Z,9.87
2022-11-26T19:29:22.084Z,9.37
2022-11-26T19:31:49.017Z,6.90
2022-11-26T19:34:16.147Z,8.87
2022-11-26T19:36:48.237Z,9.57
2022-11-26T19:39:16.203Z,9.93
2022-11-26T19:41:43.511Z,14.37
2022-11-26T19:44:10.275Z,8.90
2022-11-26T19:46:40.822Z,10.33
2022-11-26T19:49:11.122Z,9.97
2022-11-26T19:51:37.817Z,8.90
2022-11-26T19:54:05.019Z,11.90
2022-11-26T19:56:36.475Z,11.80
2022-11-26T19:59:03.963Z,9.07
2022-11-26T20:01:32.857Z,10.93
2022-11-26T20:04:02.078Z,8.37
2022-11-26T20:06:30.926Z,15.90
2022-11-26T20:09:01.097Z,9.07
2022-11-26T20:11:39.109Z,11.63
2022-11-26T20:14:10.541Z,7.70
2022-11-26T20:16:39.268Z,10.83
2022-11-26T20:19:06.124Z,13.00
2022-11-26T20:21:33.736Z,7.10
2022-11-26T20:24:04.658Z,7.63
2022-11-26T20:26:34.293Z,8.57
2022-11-26T20:29:04.555Z,12.10
2022-11-26T20:31:31.871Z,8.77
2022-11-26T20:34:02.178Z,7.93
2022-11-26T20:36:29.134Z,6.70
2022-11-26T20:38:59.713Z,9.30
2022-11-26T20:41:28.071Z,6.13
2022-11-26T20:43:58.986Z,9.33
2022-11-26T20:46:26.511Z,9.50
2022-11-26T20:48:53.253Z,16.20
2022-11-26T20:51:22.112Z,6.93
2022-11-26T20:53:50.609Z,8.20
2022-11-26T20:56:19.214Z,9.03
2022-11-26T20:58:46.191Z,10.17
2022-11-26T21:01:23.925Z,9.00
2022-11-26T21:03:52.059Z,12.23
2022-11-26T21:06:27.605Z,12.13
2022-11-26T21:09:00.200Z,10.77
2022-11-26T21:11:27.210Z,12.37
2022-11-26T21:13:53.864Z,7.67
2022-11-26T21:16:20.511Z,9.00
2022-11-26T21:18:47.205Z,17.40
2022-11-26T21:21:16.022Z,12.77
2022-11-26T21:23:44.102Z,9.53
2022-11-26T21:26:22.387Z,12.43
2022-11-26T21:28:54.108Z,10.53
2022-11-26T21:31:21.528Z,12.07
2022-11-26T21:33:54.690Z,18.03
2022-11-26T21:36:22.942Z,23.70
2022-11-26T21:38:49.810Z,14.30
2022-11-26T21:41:19.100Z,17.00
2022-11-26T21:43:46.708Z,13.03
2022-11-26T21:46:16.206Z,13.90
2022-11-26T21:48:43.362Z,12.07
2022-11-26T21:51:17.711Z,10.13
2022-11-26T21:53:44.660Z,10.00
2022-11-26T21:56:17.273Z,15.37
2022-11-26T21:58:44.240Z,13.10
2022-11-26T22:01:16.725Z,17.00
2022-11-26T22:03:45.382Z,13.00
2022-11-26T22:06:13.044Z,14.13
2022-11-26T22:08:40.823Z,23.63
2022-11-26T22:11:12.174Z,12.53
2022-11-26T22:13:39.936Z,16.73
2022-11-26T22:16:07.446Z,13.53
2022-11-26T22:18:41.675Z,12.50
2022-11-26T22:21:14.848Z,11.00
2022-11-26T22:23:41.777Z,17.70
2022-11-26T22:26:09.065Z,13.90
2022-11-26T22:28:36.138Z,11.53
2022-11-26T22:31:23.976Z,13.60
2022-11-26T22:33:54.748Z,12.70
2022-11-26T22:36:24.148Z,17.03
2022-11-26T22:38:50.943Z,16.80
2022-11-26T22:41:17.700Z,18.03
2022-11-26T22:43:44.598Z,15.93
2022-11-26T22:46:13.938Z,18.00
2022-11-26T22:48:42.470Z,14.70
2022-11-26T22:51:10.028Z,13.17
2022-11-26T22:53:37.025Z,11.13
2022-11-26T22:56:04.626Z,10.53
2022-11-26T22:58:33.543Z,12.87
2022-11-26T23:01:09.545Z,14.37
2022-11-26T23:03:38.015Z,11.03
2022-11-26T23:06:09.558Z,9.63
2022-11-26T23:08:37.459Z,10.47
2022-11-26T23:11:17.760Z,11.57
2022-11-26T23:13:45.849Z,10.63
2022-11-26T23:16:12.714Z,9.13
2022-11-26T23:18:39.849Z,10.40
2022-11-26T23:21:15.692Z,7.57
2022-11-26T23:23:43.017Z,9.90
2022-11-26T23:26:13.518Z,11.13
2022-11-26T23:28:40.298Z,10.33
2022-11-26T23:31:10.990Z,13.70
2022-11-26T23:33:37.618Z,7.63
2022-11-26T23:36:04.659Z,6.70
2022-11-26T23:38:31.261Z,11.33
2022-11-26T23:41:00.358Z,12.83
2022-11-26T23:43:27.383Z,16.73
2022-11-26T23:46:02.242Z,12.77
2022-11-26T23:48:29.266Z,13.57
2022-11-26T23:50:56.378Z,16.73
2022-11-26T23:53:23.065Z,14.40
2022-11-26T23:55:49.705Z,12.47
2022-11-26T23:58:17.284Z,13.20
